Time;durP1;ratioP1;P1;durP2;ratioP2;P2;SDS_P1;SDS_P2;PMS_P1;PMS_P2;Temp;Humidity;BMP_temperature;BMP_pressure;BME280_temperature;BME280_humidity;BME280_pressure;Samples;Min_cycle;Max_cycle;Signal;HPM_P1;HPM_P2
2023/05/20 00:02:24;;;;;;;6.05;5.57;;;;;;;12.10;100.00;63251.16;5028616;28;20273;-79
2023/05/20 00:04:51;;;;;;;8.40;6.03;;;;;;;12.02;100.00;63237.25;5028389;28;20203;-80
2023/05/20 00:07:18;;;;;;;10.07;5.68;;;;;;;12.02;100.00;63239.78;5028175;28;20218;-79
2023/05/20 00:09:46;;;;;;;6.13;5.28;;;;;;;12.01;100.00;63236.22;5027923;28;20228;-79
2023/05/20 00:12:14;;;;;;;9.93;6.15;;;;;;;11.89;100.00;63223.78;5028322;28;20234;-79
2023/05/20 00:14:41;;;;;;;7.15;5.93;;;;;;;11.89;100.00;63224.28;5027395;28;20212;-78
2023/05/20 00:17:08;;;;;;;8.73;5.88;;;;;;;11.85;100.00;63220.16;5027840;28;20218;-79
2023/05/20 00:19:37;;;;;;;8.75;5.82;;;;;;;11.83;100.00;63215.53;5028651;28;20205;-80
2023/05/20 00:22:04;;;;;;;6.80;5.47;;;;;;;11.79;100.00;63210.84;5030349;28;20218;-79
2023/05/20 00:24:31;;;;;;;7.10;6.30;;;;;;;11.82;100.00;63224.19;5028112;28;20199;-78
2023/05/20 00:26:58;;;;;;;7.50;6.00;;;;;;;11.80;100.00;63214.47;5026791;28;20242;-77
2023/05/20 00:29:27;;;;;;;6.72;6.03;;;;;;;11.63;100.00;63199.91;5027065;28;20205;-78
2023/05/20 00:31:54;;;;;;;5.90;5.35;;;;;;;11.57;100.00;63191.13;5027663;28;20258;-79
2023/05/20 00:34:22;;;;;;;7.78;6.75;;;;;;;11.52;100.00;63186.47;5028091;28;20199;-80
2023/05/20 00:36:49;;;;;;;12.60;6.55;;;;;;;11.56;100.00;63193.16;5028568;28;20285;-78
2023/05/20 00:39:15;;;;;;;7.85;6.55;;;;;;;11.57;100.00;63196.75;5026675;28;20207;-78
2023/05/20 00:41:43;;;;;;;7.72;6.95;;;;;;;11.58;100.00;63192.16;5027242;28;20463;-78
2023/05/20 00:44:10;;;;;;;7.65;5.72;;;;;;;11.57;100.00;63191.13;5028278;28;20195;-78
2023/05/20 00:46:39;;;;;;;9.10;6.03;;;;;;;11.59;100.00;63195.75;5026832;28;20218;-79
2023/05/20 00:49:07;;;;;;;7.50;6.32;;;;;;;11.55;100.00;63194.66;5028446;28;20206;-78
2023/05/20 00:51:34;;;;;;;7.15;5.97;;;;;;;11.52;100.00;63183.41;5026357;28;20240;-78
2023/05/20 00:54:01;;;;;;;7.40;6.22;;;;;;;11.49;100.00;63187.94;5027224;28;20203;-80
2023/05/20 00:56:29;;;;;;;8.27;5.93;;;;;;;11.47;100.00;63186.38;5028276;28;20511;-78
2023/05/20 00:58:58;;;;;;;9.15;5.88;;;;;;;11.45;100.00;63181.25;5026822;28;20203;-80
2023/05/20 01:01:25;;;;;;;7.85;6.28;;;;;;;11.46;100.00;63177.69;5028112;28;20223;-79
2023/05/20 01:03:54;;;;;;;7.07;6.00;;;;;;;11.45;100.00;63181.75;5029355;28;20513;-78
2023/05/20 01:06:21;;;;;;;6.72;6.13;;;;;;;11.50;100.00;63186.41;5029104;28;20425;-78
2023/05/20 01:08:48;;;;;;;7.63;6.55;;;;;;;11.47;100.00;63183.31;5030319;28;20206;-78
2023/05/20 01:11:27;;;;;;;6.43;5.60;;;;;;;11.39;100.00;63175.00;5030908;28;20226;-79
2023/05/20 01:13:59;;;;;;;5.70;5.20;;;;;;;11.37;100.00;63170.41;5033552;28;20221;-79
2023/05/20 01:16:27;;;;;;;8.95;6.55;;;;;;;11.46;100.00;63179.72;5033231;28;20219;-79
2023/05/20 01:18:57;;;;;;;6.80;6.20;;;;;;;11.37;100.00;63170.91;5030884;28;20266;-79
2023/05/20 01:21:25;;;;;;;9.00;6.10;;;;;;;11.50;100.00;63189.50;5031123;28;20222;-79
2023/05/20 01:23:54;;;;;;;8.35;6.43;;;;;;;11.47;100.00;63183.31;5030748;28;20254;-78
2023/05/20 01:26:25;;;;;;;6.38;5.80;;;;;;;11.47;100.00;63183.31;5029899;28;20396;-78
2023/05/20 01:28:53;;;;;;;9.77;6.70;;;;;;;11.46;100.00;63185.34;5030938;28;20233;-78
2023/05/20 01:31:24;;;;;;;7.05;6.38;;;;;;;11.44;100.00;63177.66;5031212;28;20297;-79
2023/05/20 01:33:57;;;;;;;8.75;6.25;;;;;;;11.54;100.00;63188.03;5031462;28;20213;-78
2023/05/20 01:36:25;;;;;;;10.20;6.53;;;;;;;11.44;100.00;63178.16;5031579;28;20282;-78
2023/05/20 01:38:55;;;;;;;6.43;5.82;;;;;;;11.49;100.00;63182.84;5030960;28;20195;-78
2023/05/20 01:41:25;;;;;;;6.68;5.75;;;;;;;11.46;100.00;63182.28;5030442;28;20223;-79
2023/05/20 01:43:52;;;;;;;8.77;6.22;;;;;;;11.46;100.00;63179.72;5031379;28;20203;-79
2023/05/20 01:46:20;;;;;;;10.80;6.35;;;;;;;11.32;100.00;63167.78;5030096;28;20201;-79
2023/05/20 01:48:47;;;;;;;6.40;5.80;;;;;;;11.51;100.00;63185.41;5030843;28;20214;-80
2023/05/20 01:51:15;;;;;;;9.35;6.03;;;;;;;11.55;100.00;63194.16;5032029;28;20223;-79
2023/05/20 01:53:42;;;;;;;7.25;6.22;;;;;;;11.59;100.00;63193.19;5029587;28;20218;-79
2023/05/20 01:56:11;;;;;;;7.10;5.93;;;;;;;11.59;100.00;63193.19;5031576;28;20210;-79
2023/05/20 01:58:38;;;;;;;8.93;6.40;;;;;;;11.53;100.00;63192.06;5030600;28;20218;-79
2023/05/20 02:01:05;;;;;;;7.65;6.10;;;;;;;11.53;100.00;63189.53;5029955;28;20493;-78
2023/05/20 02:03:33;;;;;;;10.30;7.30;;;;;;;11.48;100.00;63181.78;5028999;28;20207;-78
2023/05/20 02:06:00;;;;;;;8.15;6.50;;;;;;;11.49;100.00;63185.38;5030350;28;20194;-79
2023/05/20 02:08:27;;;;;;;8.75;5.60;;;;;;;11.46;100.00;63185.34;5031256;28;20270;-79
2023/05/20 02:10:55;;;;;;;6.03;5.38;;;;;;;11.42;100.00;63178.66;5030002;28;20226;-78
2023/05/20 02:13:23;;;;;;;6.97;5.78;;;;;;;11.39;100.00;63172.47;5030031;28;20218;-79
2023/05/20 02:15:51;;;;;;;8.07;6.32;;;;;;;11.35;100.00;63165.78;5029343;28;20198;-78
2023/05/20 02:18:20;;;;;;;7.22;6.15;;;;;;;11.32;100.00;63165.75;5030206;28;20278;-78
2023/05/20 02:20:48;;;;;;;12.43;6.53;;;;;;;11.35;100.00;63168.34;5031540;28;20199;-78
2023/05/20 02:23:15;;;;;;;7.70;6.13;;;;;;;11.32;100.00;63165.22;5029712;28;20278;-78
2023/05/20 02:25:42;;;;;;;8.40;5.93;;;;;;;11.30;100.00;63163.16;5031308;28;20198;-79
2023/05/20 02:28:09;;;;;;;6.30;5.70;;;;;;;11.29;100.00;63162.63;5028918;28;20235;-78
2023/05/20 02:30:39;;;;;;;7.55;6.38;;;;;;;11.24;100.00;63154.91;5028833;28;20492;-80
2023/05/20 02:33:08;;;;;;;7.65;6.05;;;;;;;11.11;100.00;63138.38;5029982;28;20215;-79
2023/05/20 02:35:37;;;;;;;6.60;6.00;;;;;;;11.08;100.00;63140.88;5030285;28;20217;-79
2023/05/20 02:38:04;;;;;;;10.57;6.40;;;;;;;11.01;100.00;63136.19;5030317;28;20236;-78
2023/05/20 02:40:31;;;;;;;7.50;6.22;;;;;;;11.02;100.00;63139.78;5029522;28;20225;-79
2023/05/20 02:43:00;;;;;;;7.25;6.45;;;;;;;11.02;100.00;63134.16;5028181;28;20222;-78
2023/05/20 02:45:27;;;;;;;8.48;6.00;;;;;;;10.96;100.00;63130.50;5029298;28;20218;-78
2023/05/20 02:47:55;;;;;;;9.60;6.25;;;;;;;10.96;100.00;63130.50;5031328;28;20539;-80
2023/05/20 02:50:23;;;;;;;8.65;6.53;;;;;;;11.00;100.00;63137.19;5030783;28;20198;-79
2023/05/20 02:52:50;;;;;;;6.60;6.00;;;;;;;10.93;100.00;63124.84;5028536;28;20245;-78
2023/05/20 02:55:20;;;;;;;10.27;5.85;;;;;;;10.98;100.00;63130.00;5029619;28;20198;-79
2023/05/20 02:57:47;;;;;;;7.13;6.25;;;;;;;11.04;100.00;63139.31;5028688;28;20215;-79
2023/05/20 03:00:15;;;;;;;6.38;5.75;;;;;;;11.07;100.00;63139.34;5029967;28;20503;-78
2023/05/20 03:02:42;;;;;;;8.63;6.47;;;;;;;11.04;100.00;63139.31;5031314;28;20219;-79
2023/05/20 03:05:11;;;;;;;9.45;5.93;;;;;;;11.10;100.00;63150.59;5028859;28;20229;-79
2023/05/20 03:07:38;;;;;;;8.50;6.57;;;;;;;11.13;100.00;63140.47;5028259;28;20223;-79
2023/05/20 03:10:06;;;;;;;7.40;5.75;;;;;;;11.10;100.00;63145.50;5028504;28;20198;-78
2023/05/20 03:12:33;;;;;;;7.28;6.25;;;;;;;11.17;100.00;63152.75;5031310;28;20242;-79
2023/05/20 03:15:01;;;;;;;10.63;6.22;;;;;;;11.20;100.00;63157.91;5030590;28;20203;-80
2023/05/20 03:17:28;;;;;;;6.68;5.78;;;;;;;11.27;100.00;63158.00;5028521;28;20254;-79
2023/05/20 03:19:55;;;;;;;6.80;6.10;;;;;;;11.32;100.00;63167.78;5029940;28;20546;-79
2023/05/20 03:22:23;;;;;;;5.95;5.45;;;;;;;11.37;100.00;63170.41;5028026;28;20225;-79
2023/05/20 03:24:51;;;;;;;6.93;6.22;;;;;;;11.44;100.00;63180.22;5027880;28;20202;-79
2023/05/20 03:27:20;;;;;;;7.90;5.72;;;;;;;11.44;100.00;63180.22;5029770;28;20238;-78
2023/05/20 03:29:47;;;;;;;6.78;5.95;;;;;;;11.50;100.00;63188.97;5030059;28;20197;-79
2023/05/20 03:32:14;;;;;;;6.63;6.03;;;;;;;11.62;100.00;63199.38;5030539;28;20254;-79
2023/05/20 03:34:42;;;;;;;8.55;5.50;;;;;;;11.67;100.00;63200.97;5031832;28;20207;-80
2023/05/20 03:37:09;;;;;;;6.70;5.45;;;;;;;11.75;100.00;63209.81;5028960;28;20218;-79
2023/05/20 03:39:37;;;;;;;7.78;5.68;;;;;;;11.77;100.00;63214.41;5027765;28;20199;-79
2023/05/20 03:42:05;;;;;;;8.02;6.53;;;;;;;11.85;100.00;63222.72;5029359;28;20218;-78
2023/05/20 03:44:33;;;;;;;6.10;5.45;;;;;;;12.01;100.00;63239.28;5030409;28;20219;-79
2023/05/20 03:47:00;;;;;;;9.57;5.25;;;;;;;12.09;100.00;63247.59;5049291;28;20273;-80
2023/05/20 03:49:27;;;;;;;8.38;5.70;;;;;;;12.20;100.00;63258.47;5047864;28;20240;-78
2023/05/20 03:51:55;;;;;;;7.32;5.60;;;;;;;12.25;100.00;63258.53;5046799;28;20239;-78
2023/05/20 03:54:22;;;;;;;13.13;7.03;;;;;;;12.14;100.00;63252.22;5036614;28;20347;-78
2023/05/20 03:56:51;;;;;;;8.90;6.53;;;;;;;12.30;100.00;63266.78;5027898;28;20211;-79
2023/05/20 03:59:21;;;;;;;8.23;6.47;;;;;;;12.38;100.00;63277.63;5028163;28;20199;-78
2023/05/20 04:01:48;;;;;;;9.10;7.03;;;;;;;12.49;100.00;63281.38;5028527;28;20206;-78
2023/05/20 04:04:15;;;;;;;9.55;6.03;;;;;;;12.55;100.00;63295.25;5027546;28;20195;-80
2023/05/20 04:06:43;;;;;;;13.25;7.00;;;;;;;12.71;100.00;63311.34;5029889;28;20261;-78
2023/05/20 04:09:10;;;;;;;7.55;6.85;;;;;;;12.82;100.00;63322.75;5028259;28;20434;-79
2023/05/20 04:11:41;;;;;;;7.38;6.68;;;;;;;13.00;100.00;63335.78;5032108;28;20241;-80
2023/05/20 04:14:10;;;;;;;8.05;6.80;;;;;;;13.10;100.00;63346.69;5033525;28;20210;-79
2023/05/20 04:16:38;;;;;;;11.68;7.85;;;;;;;13.11;100.00;63354.88;5027984;28;20218;-79
2023/05/20 04:19:06;;;;;;;7.95;6.95;;;;;;;13.12;100.00;63350.78;5027087;28;20198;-78
2023/05/20 04:21:33;;;;;;;7.43;6.32;;;;;;;13.43;100.00;63383.47;5028580;28;20233;-79
2023/05/20 04:24:00;;;;;;;8.50;7.05;;;;;;;13.57;100.00;63400.03;5028134;28;20226;-79
2023/05/20 04:26:27;;;;;;;7.28;6.55;;;;;;;13.67;100.00;63407.88;5028577;28;20238;-78
2023/05/20 04:28:57;;;;;;;8.23;6.40;;;;;;;13.68;100.00;63409.41;5026487;28;20197;-78
2023/05/20 04:31:26;;;;;;;11.57;6.30;;;;;;;13.63;100.00;63411.41;5027127;28;20238;-78
2023/05/20 04:33:53;;;;;;;9.73;6.78;;;;;;;13.93;100.00;63437.94;5028297;28;20249;-78
2023/05/20 04:36:21;;;;;;;8.40;6.30;;;;;;;14.00;100.00;63444.69;5028203;28;20199;-78
2023/05/20 04:38:48;;;;;;;11.57;7.07;;;;;;;14.08;100.00;63449.91;5028595;28;20202;-80
2023/05/20 04:41:15;;;;;;;8.32;7.07;;;;;;;14.09;100.00;63448.91;5026654;28;20195;-78
2023/05/20 04:43:43;;;;;;;11.27;6.93;;;;;;;14.16;100.00;63461.28;5025229;28;20203;-78
2023/05/20 04:46:11;;;;;;;8.07;6.40;;;;;;;14.26;100.00;63468.59;5026948;28;20218;-79
2023/05/20 04:48:40;;;;;;;11.98;7.55;;;;;;;14.43;100.00;63489.34;5026998;28;20203;-80
2023/05/20 04:51:08;;;;;;;11.43;8.60;;;;;;;14.51;100.00;63497.16;5027914;28;20217;-78
2023/05/20 04:53:36;;;;;;;9.55;8.10;;;;;;;14.45;100.00;63494.00;5028049;28;20205;-79
2023/05/20 04:56:04;;;;;;;10.57;8.88;;;;;;;14.50;100.00;63494.06;5026350;28;20198;-78
2023/05/20 04:58:34;;;;;;;13.30;9.15;;;;;;;14.75;100.00;63520.00;5026743;28;20203;-77
2023/05/20 05:01:01;;;;;;;9.43;7.93;;;;;;;14.73;100.00;63515.38;5026190;28;20199;-78
2023/05/20 05:03:31;;;;;;;10.02;8.57;;;;;;;14.78;100.00;63520.06;5029093;28;20202;-79
2023/05/20 05:06:01;;;;;;;12.50;8.23;;;;;;;14.91;99.87;63536.66;5027807;28;20198;-78
2023/05/20 05:08:28;;;;;;;11.10;7.13;;;;;;;14.75;98.77;63519.50;5026278;28;20256;-78
2023/05/20 05:10:55;;;;;;;8.18;6.72;;;;;;;14.62;99.02;63509.09;5029378;28;20202;-79
2023/05/20 05:13:22;;;;;;;8.32;7.40;;;;;;;14.98;99.33;63543.91;5027333;28;20257;-81
2023/05/20 05:15:57;;;;;;;7.97;7.10;;;;;;;15.28;99.40;63576.63;5028188;28;20468;-79
2023/05/20 05:18:24;;;;;;;7.20;6.50;;;;;;;15.45;99.60;63589.16;5028124;28;20221;-79
2023/05/20 05:21:01;;;;;;;9.60;7.40;;;;;;;15.69;99.11;63617.22;5028173;28;20526;-78
2023/05/20 05:23:28;;;;;;;8.77;7.13;;;;;;;15.85;98.80;63635.88;5029889;28;20244;-79
2023/05/20 05:25:56;;;;;;;9.20;7.40;;;;;;;16.04;97.82;63658.75;5028011;28;20205;-77
2023/05/20 05:28:23;;;;;;;8.75;5.78;;;;;;;16.16;92.53;63668.13;5027025;28;20218;-79
2023/05/20 05:30:51;;;;;;;7.55;6.25;;;;;;;16.42;89.76;63692.09;5028469;28;20241;-79
2023/05/20 05:33:19;;;;;;;8.15;6.47;;;;;;;16.53;90.72;63708.69;5027443;28;20475;-78
2023/05/20 05:35:47;;;;;;;11.32;6.40;;;;;;;16.62;90.15;63716.00;5026248;28;20229;-78
2023/05/20 05:38:15;;;;;;;5.65;5.25;;;;;;;16.80;78.91;63729.06;5028615;28;20218;-80
2023/05/20 05:40:43;;;;;;;4.70;4.35;;;;;;;17.00;79.83;63755.53;5026184;28;20197;-78
2023/05/20 05:43:10;;;;;;;5.38;4.93;;;;;;;17.15;77.22;63765.50;5027246;28;20218;-78
2023/05/20 05:45:37;;;;;;;5.97;5.32;;;;;;;17.24;71.63;63780.53;5029212;28;20194;-78
2023/05/20 05:48:04;;;;;;;5.47;4.97;;;;;;;17.45;69.31;63801.88;5026847;28;20218;-78
2023/05/20 05:50:32;;;;;;;5.88;5.13;;;;;;;17.52;66.97;63806.59;5027158;28;20199;-79
2023/05/20 05:52:59;;;;;;;5.55;5.05;;;;;;;17.62;64.41;63816.50;5027212;28;20230;-79
2023/05/20 05:55:28;;;;;;;5.30;4.82;;;;;;;17.66;64.88;63823.22;5031045;28;20197;-78
2023/05/20 05:57:55;;;;;;;7.70;5.20;;;;;;;17.60;64.48;63814.91;5033061;28;20218;-78
2023/05/20 06:00:22;;;;;;;6.32;5.40;;;;;;;17.76;65.22;63833.63;5031199;28;20252;-79
2023/05/20 06:02:49;;;;;;;5.68;5.18;;;;;;;17.82;62.91;63839.91;5030773;28;20290;-78
2023/05/20 06:05:16;;;;;;;5.72;5.22;;;;;;;17.85;66.42;63840.44;5032049;28;20209;-79
2023/05/20 06:07:44;;;;;;;5.50;4.78;;;;;;;17.93;66.03;63849.28;5030194;28;20222;-79
2023/05/20 06:10:11;;;;;;;6.72;4.93;;;;;;;17.82;65.58;63839.91;5031580;28;20198;-78
2023/05/20 06:12:40;;;;;;;5.10;4.70;;;;;;;17.98;66.88;63854.00;5030618;28;20245;-80
2023/05/20 06:15:08;;;;;;;6.65;5.43;;;;;;;17.95;65.86;63859.09;5031125;28;20205;-79
2023/05/20 06:17:36;;;;;;;5.20;4.70;;;;;;;18.05;60.99;63861.28;5031063;28;20249;-78
2023/05/20 06:20:04;;;;;;;5.43;4.93;;;;;;;18.04;61.16;63860.22;5030879;28;20208;-78
2023/05/20 06:22:31;;;;;;;5.45;5.03;;;;;;;18.03;63.45;63859.72;5030841;28;20224;-78
2023/05/20 06:25:01;;;;;;;5.38;4.97;;;;;;;18.20;65.10;63880.00;5031477;28;20210;-79
2023/05/20 06:27:28;;;;;;;6.03;5.43;;;;;;;18.33;63.42;63890.97;5029238;28;20236;-78
2023/05/20 06:29:57;;;;;;;5.00;4.50;;;;;;;18.41;61.87;63901.91;5031990;28;20269;-79
2023/05/20 06:32:24;;;;;;;5.80;5.25;;;;;;;18.39;61.11;63899.81;5029247;28;20249;-79
2023/05/20 06:34:52;;;;;;;5.22;4.72;;;;;;;18.48;60.06;63906.09;5030197;28;20265;-79
2023/05/20 06:37:19;;;;;;;6.35;5.70;;;;;;;18.70;61.42;63933.66;5030407;28;20233;-79
2023/05/20 06:39:50;;;;;;;6.25;4.80;;;;;;;18.82;61.04;63943.59;5030165;28;20193;-78
2023/05/20 06:42:17;;;;;;;5.80;4.45;;;;;;;18.84;60.73;63943.09;5029363;28;20256;-79
2023/05/20 06:44:44;;;;;;;5.32;4.93;;;;;;;19.02;60.76;63962.38;5030807;28;20198;-79
2023/05/20 06:47:14;;;;;;;5.72;5.10;;;;;;;19.11;59.77;63971.22;5030096;28;20214;-80
2023/05/20 06:49:42;;;;;;;4.88;4.47;;;;;;;19.25;57.85;63988.41;5029253;28;20198;-78
2023/05/20 06:52:09;;;;;;;5.03;4.63;;;;;;;19.20;60.56;63983.72;5029161;28;20293;-78
2023/05/20 06:54:40;;;;;;;5.10;4.50;;;;;;;19.33;60.50;63996.78;5033433;28;20198;-79
2023/05/20 06:57:07;;;;;;;6.53;4.45;;;;;;;19.49;60.62;64011.41;5030419;28;20237;-78
2023/05/20 06:59:35;;;;;;;6.32;5.78;;;;;;;19.56;57.67;64020.75;5028481;28;20202;-78
2023/05/20 07:02:03;;;;;;;8.18;5.32;;;;;;;19.55;55.85;64020.25;5028425;28;20261;-78
2023/05/20 07:04:33;;;;;;;5.13;4.63;;;;;;;19.30;55.86;63991.06;5030636;28;20204;-79
2023/05/20 07:07:02;;;;;;;6.10;5.57;;;;;;;19.32;58.44;63995.75;5030288;28;20586;-78
2023/05/20 07:09:29;;;;;;;5.85;5.35;;;;;;;19.45;58.03;64011.88;5031750;28;20263;-78
2023/05/20 07:11:56;;;;;;;5.50;5.00;;;;;;;19.44;58.56;64010.84;5029465;28;20218;-78
2023/05/20 07:14:23;;;;;;;5.85;5.38;;;;;;;19.61;58.07;64022.88;5029283;28;20201;-78
2023/05/20 07:16:51;;;;;;;5.95;5.38;;;;;;;19.64;56.08;64029.09;5029861;28;20248;-79
2023/05/20 07:19:20;;;;;;;6.20;5.60;;;;;;;19.87;54.90;64052.56;5033189;28;20194;-79
2023/05/20 07:21:49;;;;;;;5.65;5.03;;;;;;;19.62;54.45;64027.03;5031949;28;20280;-79
2023/05/20 07:24:17;;;;;;;6.03;5.03;;;;;;;19.51;56.71;64016.09;5031012;28;20296;-79
2023/05/20 07:26:44;;;;;;;6.43;5.82;;;;;;;19.66;57.81;64028.59;5030928;28;20226;-78
2023/05/20 07:29:12;;;;;;;6.32;5.82;;;;;;;19.86;57.09;64052.06;5030666;28;20198;-79
2023/05/20 07:31:39;;;;;;;5.53;5.10;;;;;;;19.59;53.63;64025.97;5032356;28;20225;-78
2023/05/20 07:34:07;;;;;;;5.20;4.82;;;;;;;19.58;55.40;64019.75;5028317;28;20230;-77
2023/05/20 07:36:35;;;;;;;7.57;5.65;;;;;;;19.80;55.79;64045.28;5031315;28;20218;-79
2023/05/20 07:39:03;;;;;;;5.80;5.30;;;;;;;19.86;54.11;64059.81;5029504;28;20262;-80
2023/05/20 07:41:31;;;;;;;6.75;5.70;;;;;;;19.91;57.18;64062.44;5029174;28;20261;-79
2023/05/20 07:43:58;;;;;;;6.05;5.53;;;;;;;19.97;55.06;64063.53;5029519;28;20202;-78
2023/05/20 07:46:25;;;;;;;6.15;5.57;;;;;;;20.20;54.52;64084.44;5029763;28;20225;-78
2023/05/20 07:48:53;;;;;;;7.00;6.32;;;;;;;20.25;54.22;64089.66;5027641;28;20262;-78
2023/05/20 07:51:20;;;;;;;5.63;4.97;;;;;;;20.43;54.19;64108.44;5028514;28;20253;-79
2023/05/20 07:53:47;;;;;;;6.00;5.45;;;;;;;20.45;52.05;64113.09;5029143;28;20230;-80
2023/05/20 07:56:16;;;;;;;6.47;5.65;;;;;;;20.57;53.34;64128.75;5028845;28;20201;-79
2023/05/20 07:58:44;;;;;;;5.75;5.25;;;;;;;20.72;54.75;64143.91;5028668;28;20419;-79
2023/05/20 08:01:11;;;;;;;7.00;5.28;;;;;;;20.79;53.76;64148.09;5028023;28;20229;-78
2023/05/20 08:03:38;;;;;;;5.70;5.20;;;;;;;20.51;52.54;64122.50;5026613;28;20238;-78
2023/05/20 08:06:05;;;;;;;8.65;5.60;;;;;;;20.43;52.40;64113.63;5029472;28;20204;-77
2023/05/20 08:08:33;;;;;;;5.50;4.97;;;;;;;20.55;52.97;64121.47;5029119;28;20202;-79
2023/05/20 08:11:01;;;;;;;5.72;5.22;;;;;;;20.51;53.14;64122.50;5029367;28;20202;-78
2023/05/20 08:13:31;;;;;;;6.53;5.30;;;;;;;20.50;53.55;64118.34;5031456;28;20236;-78
2023/05/20 08:16:00;;;;;;;6.05;5.20;;;;;;;20.70;54.76;64139.22;5034204;28;20246;-78
2023/05/20 08:18:28;;;;;;;6.03;5.45;;;;;;;20.89;55.26;64159.06;5032535;28;20245;-79
2023/05/20 08:20:57;;;;;;;5.50;5.00;;;;;;;20.89;54.37;64158.53;5031624;28;20213;-78
2023/05/20 08:23:25;;;;;;;5.85;5.45;;;;;;;20.96;55.20;64163.25;5033024;28;20222;-78
2023/05/20 08:25:52;;;;;;;5.38;4.82;;;;;;;20.94;53.53;64164.28;5031699;28;20209;-78
2023/05/20 08:28:23;;;;;;;6.38;5.78;;;;;;;20.99;55.89;64168.97;5032111;28;20536;-80
2023/05/20 08:30:56;;;;;;;6.15;5.50;;;;;;;20.92;53.88;64159.06;5034162;28;20205;-77
2023/05/20 08:33:42;;;;;;;6.43;5.82;;;;;;;20.85;55.19;64149.16;5034603;28;20249;-78
2023/05/20 08:38:53;;;;;;;7.00;5.50;;;;;;;20.97;55.10;64169.47;5026571;28;20193;-80
2023/05/20 08:41:21;;;;;;;6.25;5.65;;;;;;;20.95;55.65;64162.22;5028655;28;20419;-79
2023/05/20 08:43:50;;;;;;;6.32;5.70;;;;;;;20.97;54.58;64169.47;5027921;28;20221;-78
2023/05/20 08:46:20;;;;;;;6.30;4.93;;;;;;;20.59;53.43;64125.66;5027077;28;20371;-78
2023/05/20 08:48:47;;;;;;;6.03;5.55;;;;;;;20.68;53.97;64139.72;5026733;28;20202;-78
2023/05/20 08:51:17;;;;;;;6.13;5.50;;;;;;;20.59;53.93;64128.25;5026863;28;20245;-79
2023/05/20 08:53:44;;;;;;;8.27;5.75;;;;;;;20.72;53.33;64133.00;5026504;28;20296;-78
2023/05/20 08:56:13;;;;;;;6.32;5.65;;;;;;;20.72;52.54;64143.91;5027650;28;20212;-80
2023/05/20 08:58:41;;;;;;;6.50;5.40;;;;;;;20.75;53.54;64146.50;5028831;28;20262;-77
2023/05/20 09:01:08;;;;;;;7.78;4.65;;;;;;;20.81;51.99;64148.13;5028155;28;20205;-77
2023/05/20 09:03:37;;;;;;;6.78;5.03;;;;;;;20.44;55.53;64112.59;5026804;28;20209;-79
2023/05/20 09:06:06;;;;;;;8.52;5.60;;;;;;;20.61;54.42;64130.34;5026741;28;20194;-79
2023/05/20 09:08:35;;;;;;;6.35;5.75;;;;;;;20.74;53.67;64140.81;5026839;28;20205;-78
2023/05/20 09:11:02;;;;;;;6.10;5.55;;;;;;;20.68;52.91;64139.72;5026683;28;20202;-78
2023/05/20 09:13:32;;;;;;;6.63;5.00;;;;;;;20.78;54.78;64152.75;5027905;28;20241;-80
2023/05/20 09:16:00;;;;;;;5.95;5.50;;;;;;;21.01;52.60;64169.00;5026526;28;20206;-78
2023/05/20 09:18:28;;;;;;;5.97;5.10;;;;;;;21.13;52.24;64183.59;5026591;28;20264;-80
2023/05/20 09:20:57;;;;;;;7.50;5.45;;;;;;;21.15;50.51;64180.50;5026255;28;20198;-77
2023/05/20 09:23:26;;;;;;;6.22;5.60;;;;;;;21.19;50.30;64189.88;5026164;28;20214;-79
2023/05/20 09:25:53;;;;;;;5.85;5.07;;;;;;;21.33;51.83;64205.00;5025617;28;20218;-78
2023/05/20 09:28:22;;;;;;;8.20;6.25;;;;;;;21.35;51.43;64212.28;5027248;28;20245;-78
2023/05/20 09:30:50;;;;;;;9.02;5.88;;;;;;;21.36;53.84;64210.22;5030434;28;20194;-78
2023/05/20 09:33:18;;;;;;;8.57;6.63;;;;;;;21.74;52.28;64245.25;5029221;28;20264;-78
2023/05/20 09:35:45;;;;;;;8.20;5.80;;;;;;;21.97;51.03;64270.84;5031702;28;20229;-77
2023/05/20 09:38:15;;;;;;;5.70;5.22;;;;;;;22.20;50.33;64300.06;5030113;28;20218;-79
2023/05/20 09:40:44;;;;;;;5.85;5.35;;;;;;;21.97;48.99;64268.28;5029658;28;20194;-78
2023/05/20 09:43:12;;;;;;;6.75;6.10;;;;;;;22.10;49.17;64287.56;5029908;28;20241;-77
2023/05/20 09:45:41;;;;;;;6.07;5.57;;;;;;;22.05;49.52;64281.81;5028606;28;20194;-79
2023/05/20 09:48:11;;;;;;;6.78;6.05;;;;;;;22.39;49.01;64317.88;5029008;28;20281;-79
2023/05/20 09:50:39;;;;;;;5.95;5.45;;;;;;;22.42;49.87;64320.47;5029415;28;20198;-79
2023/05/20 09:53:08;;;;;;;6.13;5.45;;;;;;;22.23;48.54;64292.81;5029446;28;20250;-76
2023/05/20 09:55:38;;;;;;;6.55;4.72;;;;;;;22.11;49.32;64286.00;5030434;28;20237;-77
2023/05/20 09:58:05;;;;;;;8.40;5.70;;;;;;;21.99;48.30;64273.47;5029320;28;20427;-78
2023/05/20 10:00:33;;;;;;;6.13;5.63;;;;;;;21.65;47.96;64240.50;5028797;28;20198;-77
2023/05/20 10:03:01;;;;;;;6.18;5.55;;;;;;;21.40;48.04;64212.31;5028277;28;20275;-77
2023/05/20 10:05:30;;;;;;;6.22;5.63;;;;;;;21.28;51.17;64197.19;5029682;28;20198;-78
2023/05/20 10:08:40;;;;;;;8.52;5.88;;;;;;;21.01;51.77;64169.00;5029127;28;20218;-77
2023/05/20 10:11:17;;;;;;;6.00;5.50;;;;;;;20.67;52.81;64136.09;5028231;28;20196;-77
2023/05/20 10:14:01;;;;;;;7.15;5.45;;;;;;;20.98;54.24;64163.28;5029024;28;20272;-77
2023/05/20 10:16:42;;;;;;;5.97;5.47;;;;;;;21.29;51.15;64203.44;5029286;28;20221;-79
2023/05/20 10:19:19;;;;;;;7.75;5.78;;;;;;;21.22;50.93;64195.59;5028504;28;20231;-77
2023/05/20 10:21:57;;;;;;;11.65;5.53;;;;;;;21.04;50.80;64174.72;5028731;28;20229;-77
2023/05/20 10:24:31;;;;;;;5.32;4.93;;;;;;;21.20;50.13;64193.50;5029422;28;20202;-77
2023/05/20 10:27:02;;;;;;;8.20;6.20;;;;;;;21.59;51.54;64229.06;5029084;28;20214;-78
2023/05/20 10:29:29;;;;;;;6.15;5.55;;;;;;;21.78;50.59;64254.63;5028746;28;20276;-78
2023/05/20 10:31:56;;;;;;;5.45;4.95;;;;;;;21.66;47.70;64241.56;5028835;28;20392;-77
2023/05/20 10:34:24;;;;;;;5.68;5.15;;;;;;;21.46;48.51;64220.66;5029375;28;20237;-78
2023/05/20 10:37:01;;;;;;;5.38;4.88;;;;;;;21.24;48.52;64200.28;5028479;28;20217;-76
2023/05/20 10:39:29;;;;;;;6.03;4.60;;;;;;;21.43;49.02;64214.94;5029748;28;20244;-77
2023/05/20 10:42:08;;;;;;;4.78;4.40;;;;;;;21.59;49.68;64231.66;5028524;28;20225;-78
2023/05/20 10:44:42;;;;;;;4.70;4.30;;;;;;;21.39;47.60;64213.88;5034146;28;20208;-78
2023/05/20 10:47:10;;;;;;;4.55;4.15;;;;;;;21.37;45.59;64211.78;5041375;28;20217;-78
2023/05/20 10:49:41;;;;;;;4.72;4.32;;;;;;;21.54;48.27;64226.94;5033638;28;20206;-78
2023/05/20 10:52:10;;;;;;;4.90;4.25;;;;;;;21.75;48.13;64248.91;5034081;28;20278;-78
2023/05/20 10:54:44;;;;;;;3.85;3.55;;;;;;;21.91;46.43;64267.19;5046396;28;20288;-78
2023/05/20 10:57:13;;;;;;;4.65;4.15;;;;;;;21.72;46.30;64243.16;5048441;28;20227;-78
2023/05/20 10:59:46;;;;;;;9.45;4.57;;;;;;;21.47;45.92;64222.22;5049285;28;20380;-77
2023/05/20 11:02:16;;;;;;;4.68;4.25;;;;;;;21.21;47.13;64192.47;5048289;28;20209;-76
2023/05/20 11:04:44;;;;;;;4.95;4.53;;;;;;;20.97;47.67;64161.72;5049519;28;20201;-78
2023/05/20 11:07:12;;;;;;;5.63;4.47;;;;;;;21.18;49.87;64189.34;5050023;28;20416;-78
2023/05/20 11:09:39;;;;;;;5.00;4.60;;;;;;;21.46;48.80;64218.06;5048752;28;20252;-79
2023/05/20 11:12:06;;;;;;;5.85;4.30;;;;;;;21.85;48.72;64258.84;5047697;28;20217;-78
2023/05/20 11:14:35;;;;;;;5.75;4.82;;;;;;;21.98;47.04;64272.44;5048614;28;20233;-77
2023/05/20 11:17:03;;;;;;;4.63;4.22;;;;;;;22.44;47.74;64325.69;5047937;28;20221;-79
2023/05/20 11:19:31;;;;;;;4.95;4.55;;;;;;;22.64;47.23;64346.09;5048231;28;20225;-77
2023/05/20 11:21:58;;;;;;;4.05;3.75;;;;;;;22.41;48.24;64316.84;5048618;28;20448;-78
2023/05/20 11:24:26;;;;;;;4.65;4.35;;;;;;;22.03;47.60;64277.13;5047748;28;20220;-77
2023/05/20 11:26:53;;;;;;;4.82;4.43;;;;;;;21.59;47.65;64231.66;5046524;28;20217;-77
2023/05/20 11:29:21;;;;;;;5.05;4.55;;;;;;;21.37;48.52;64211.78;5047001;28;20204;-78
2023/05/20 11:31:51;;;;;;;5.70;4.78;;;;;;;21.36;48.98;64205.03;5049501;28;20228;-78
2023/05/20 11:34:21;;;;;;;4.53;4.07;;;;;;;21.25;48.03;64196.66;5049076;28;20233;-78
2023/05/20 11:36:49;;;;;;;4.40;4.00;;;;;;;21.03;49.13;64173.69;5048049;28;20221;-77
2023/05/20 11:39:17;;;;;;;3.90;3.67;;;;;;;20.92;49.77;64164.78;5049206;28;20197;-77